sensor_id;sensor_type;location;lat;lon;timestamp;P1;durP1;ratioP1;P2;durP2;ratioP2
54897;SDS011;40800;52.704;6.398;2023-05-02T00:02:05;52.97;;;48.45;;
54897;SDS011;40800;52.704;6.398;2023-05-02T00:04:31;52.07;;;47.47;;
54897;SDS011;40800;52.704;6.398;2023-05-02T00:06:57;49.40;;;45.30;;
54897;SDS011;40800;52.704;6.398;2023-05-02T00:09:22;52.83;;;48.63;;
54897;SDS011;40800;52.704;6.398;2023-05-02T00:11:48;52.60;;;48.35;;
54897;SDS011;40800;52.704;6.398;2023-05-02T00:14:13;50.60;;;46.58;;
54897;SDS011;40800;52.704;6.398;2023-05-02T00:16:39;50.00;;;46.10;;
54897;SDS011;40800;52.704;6.398;2023-05-02T00:19:05;49.10;;;44.97;;
54897;SDS011;40800;52.704;6.398;2023-05-02T00:21:30;48.40;;;44.78;;
54897;SDS011;40800;52.704;6.398;2023-05-02T00:23:57;47.37;;;43.87;;
54897;SDS011;40800;52.704;6.398;2023-05-02T00:26:23;47.67;;;44.17;;
54897;SDS011;40800;52.704;6.398;2023-05-02T00:28:49;46.10;;;42.65;;
54897;SDS011;40800;52.704;6.398;2023-05-02T00:31:14;46.30;;;43.03;;
54897;SDS011;40800;52.704;6.398;2023-05-02T00:33:40;44.72;;;41.53;;
54897;SDS011;40800;52.704;6.398;2023-05-02T00:36:15;44.22;;;40.78;;
54897;SDS011;40800;52.704;6.398;2023-05-02T00:38:42;43.70;;;40.80;;
54897;SDS011;40800;52.704;6.398;2023-05-02T00:41:08;44.13;;;40.97;;
54897;SDS011;40800;52.704;6.398;2023-05-02T00:43:34;43.22;;;39.88;;
54897;SDS011;40800;52.704;6.398;2023-05-02T00:46:00;42.10;;;39.20;;
54897;SDS011;40800;52.704;6.398;2023-05-02T00:48:26;41.78;;;38.97;;
54897;SDS011;40800;52.704;6.398;2023-05-02T00:50:52;41.75;;;38.97;;
54897;SDS011;40800;52.704;6.398;2023-05-02T00:53:18;42.28;;;39.47;;
54897;SDS011;40800;52.704;6.398;2023-05-02T00:55:44;43.33;;;40.20;;
54897;SDS011;40800;52.704;6.398;2023-05-02T00:58:13;43.47;;;40.22;;
54897;SDS011;40800;52.704;6.398;2023-05-02T01:03:29;42.63;;;39.75;;
54897;SDS011;40800;52.704;6.398;2023-05-02T01:07:01;40.75;;;37.97;;
54897;SDS011;40800;52.704;6.398;2023-05-02T01:12:05;40.53;;;37.17;;
54897;SDS011;40800;52.704;6.398;2023-05-02T01:14:44;40.53;;;37.72;;
54897;SDS011;40800;52.704;6.398;2023-05-02T01:17:14;38.90;;;36.47;;
54897;SDS011;40800;52.704;6.398;2023-05-02T01:19:43;37.97;;;35.45;;
54897;SDS011;40800;52.704;6.398;2023-05-02T01:22:15;37.30;;;35.03;;
54897;SDS011;40800;52.704;6.398;2023-05-02T01:29:52;38.38;;;35.55;;
54897;SDS011;40800;52.704;6.398;2023-05-02T01:32:19;36.30;;;34.08;;
54897;SDS011;40800;52.704;6.398;2023-05-02T01:34:47;35.53;;;33.33;;
54897;SDS011;40800;52.704;6.398;2023-05-02T01:37:14;36.03;;;33.78;;
54897;SDS011;40800;52.704;6.398;2023-05-02T01:39:42;36.65;;;34.25;;
54897;SDS011;40800;52.704;6.398;2023-05-02T01:42:09;36.85;;;34.35;;
54897;SDS011;40800;52.704;6.398;2023-05-02T01:44:37;35.67;;;33.45;;
54897;SDS011;40800;52.704;6.398;2023-05-02T01:47:05;35.20;;;33.00;;
54897;SDS011;40800;52.704;6.398;2023-05-02T01:49:33;34.17;;;32.03;;
54897;SDS011;40800;52.704;6.398;2023-05-02T01:54:28;33.60;;;31.38;;
54897;SDS011;40800;52.704;6.398;2023-05-02T01:56:55;34.88;;;32.92;;
54897;SDS011;40800;52.704;6.398;2023-05-02T01:59:23;33.55;;;31.65;;
54897;SDS011;40800;52.704;6.398;2023-05-02T02:01:51;32.50;;;30.35;;
54897;SDS011;40800;52.704;6.398;2023-05-02T02:04:18;32.08;;;30.10;;
54897;SDS011;40800;52.704;6.398;2023-05-02T02:09:12;32.58;;;30.67;;
54897;SDS011;40800;52.704;6.398;2023-05-02T02:14:37;31.60;;;29.88;;
54897;SDS011;40800;52.704;6.398;2023-05-02T02:17:12;31.17;;;29.40;;
54897;SDS011;40800;52.704;6.398;2023-05-02T02:19:40;31.63;;;29.60;;
54897;SDS011;40800;52.704;6.398;2023-05-02T02:22:08;31.25;;;29.30;;
54897;SDS011;40800;52.704;6.398;2023-05-02T02:24:36;32.10;;;30.08;;
54897;SDS011;40800;52.704;6.398;2023-05-02T02:27:04;31.05;;;29.20;;
54897;SDS011;40800;52.704;6.398;2023-05-02T02:29:29;30.67;;;28.75;;
54897;SDS011;40800;52.704;6.398;2023-05-02T02:31:55;31.42;;;29.25;;
54897;SDS011;40800;52.704;6.398;2023-05-02T02:34:20;32.15;;;30.25;;
54897;SDS011;40800;52.704;6.398;2023-05-02T02:36:48;31.77;;;29.88;;
54897;SDS011;40800;52.704;6.398;2023-05-02T02:42:13;31.20;;;29.30;;
54897;SDS011;40800;52.704;6.398;2023-05-02T02:53:38;30.85;;;28.90;;
54897;SDS011;40800;52.704;6.398;2023-05-02T02:56:11;32.38;;;30.17;;
54897;SDS011;40800;52.704;6.398;2023-05-02T03:01:17;31.52;;;29.73;;
54897;SDS011;40800;52.704;6.398;2023-05-02T03:03:45;32.13;;;30.02;;
54897;SDS011;40800;52.704;6.398;2023-05-02T03:06:12;32.47;;;30.25;;
54897;SDS011;40800;52.704;6.398;2023-05-02T03:08:38;32.67;;;30.58;;
54897;SDS011;40800;52.704;6.398;2023-05-02T03:13:30;33.67;;;31.48;;
54897;SDS011;40800;52.704;6.398;2023-05-02T03:16:11;33.75;;;31.13;;
54897;SDS011;40800;52.704;6.398;2023-05-02T03:18:52;32.55;;;30.20;;
54897;SDS011;40800;52.704;6.398;2023-05-02T03:21:18;33.10;;;30.58;;
54897;SDS011;40800;52.704;6.398;2023-05-02T03:23:43;32.90;;;30.30;;
54897;SDS011;40800;52.704;6.398;2023-05-02T03:26:09;32.90;;;30.05;;
54897;SDS011;40800;52.704;6.398;2023-05-02T03:28:35;32.65;;;30.17;;
54897;SDS011;40800;52.704;6.398;2023-05-02T03:31:00;32.97;;;30.30;;
54897;SDS011;40800;52.704;6.398;2023-05-02T03:33:26;32.15;;;29.00;;
54897;SDS011;40800;52.704;6.398;2023-05-02T03:35:52;31.75;;;28.70;;
54897;SDS011;40800;52.704;6.398;2023-05-02T03:38:17;31.77;;;28.60;;
54897;SDS011;40800;52.704;6.398;2023-05-02T03:40:43;30.33;;;27.55;;
54897;SDS011;40800;52.704;6.398;2023-05-02T03:43:09;30.30;;;27.45;;
54897;SDS011;40800;52.704;6.398;2023-05-02T03:45:35;29.95;;;27.00;;
54897;SDS011;40800;52.704;6.398;2023-05-02T03:48:00;27.35;;;24.85;;
54897;SDS011;40800;52.704;6.398;2023-05-02T03:50:26;27.48;;;24.65;;
54897;SDS011;40800;52.704;6.398;2023-05-02T03:52:52;26.95;;;24.00;;
54897;SDS011;40800;52.704;6.398;2023-05-02T03:55:18;30.52;;;23.85;;
54897;SDS011;40800;52.704;6.398;2023-05-02T03:57:43;26.40;;;23.13;;
54897;SDS011;40800;52.704;6.398;2023-05-02T04:00:09;27.40;;;21.92;;
54897;SDS011;40800;52.704;6.398;2023-05-02T04:02:35;22.90;;;20.67;;
54897;SDS011;40800;52.704;6.398;2023-05-02T04:05:01;27.95;;;22.02;;
54897;SDS011;40800;52.704;6.398;2023-05-02T04:07:26;23.15;;;20.70;;
54897;SDS011;40800;52.704;6.398;2023-05-02T04:09:52;22.42;;;20.13;;
54897;SDS011;40800;52.704;6.398;2023-05-02T04:12:18;22.65;;;20.15;;
54897;SDS011;40800;52.704;6.398;2023-05-02T04:14:44;26.70;;;20.03;;
54897;SDS011;40800;52.704;6.398;2023-05-02T04:17:09;24.63;;;19.38;;
54897;SDS011;40800;52.704;6.398;2023-05-02T04:19:35;21.27;;;18.40;;
54897;SDS011;40800;52.704;6.398;2023-05-02T04:22:01;24.10;;;17.45;;
54897;SDS011;40800;52.704;6.398;2023-05-02T04:24:27;23.88;;;17.48;;
54897;SDS011;40800;52.704;6.398;2023-05-02T04:26:53;23.70;;;17.45;;
54897;SDS011;40800;52.704;6.398;2023-05-02T04:29:18;21.70;;;17.58;;
54897;SDS011;40800;52.704;6.398;2023-05-02T04:31:44;22.48;;;16.55;;
54897;SDS011;40800;52.704;6.398;2023-05-02T04:34:10;19.20;;;17.17;;
54897;SDS011;40800;52.704;6.398;2023-05-02T04:36:36;18.25;;;16.52;;
54897;SDS011;40800;52.704;6.398;2023-05-02T04:39:01;20.45;;;16.42;;
54897;SDS011;40800;52.704;6.398;2023-05-02T04:41:28;18.58;;;16.65;;
54897;SDS011;40800;52.704;6.398;2023-05-02T04:43:54;19.13;;;14.95;;
54897;SDS011;40800;52.704;6.398;2023-05-02T04:46:19;17.55;;;15.93;;
54897;SDS011;40800;52.704;6.398;2023-05-02T04:48:45;17.08;;;15.35;;
54897;SDS011;40800;52.704;6.398;2023-05-02T04:51:11;17.77;;;15.48;;
54897;SDS011;40800;52.704;6.398;2023-05-02T04:53:37;17.75;;;15.85;;
54897;SDS011;40800;52.704;6.398;2023-05-02T04:56:02;17.90;;;15.15;;
54897;SDS011;40800;52.704;6.398;2023-05-02T04:58:28;18.20;;;15.10;;
54897;SDS011;40800;52.704;6.398;2023-05-02T05:00:54;19.35;;;15.40;;
54897;SDS011;40800;52.704;6.398;2023-05-02T05:03:20;15.95;;;14.45;;
54897;SDS011;40800;52.704;6.398;2023-05-02T05:05:45;15.93;;;14.10;;
54897;SDS011;40800;52.704;6.398;2023-05-02T05:08:11;17.42;;;14.10;;
54897;SDS011;40800;52.704;6.398;2023-05-02T05:10:37;17.20;;;13.70;;
54897;SDS011;40800;52.704;6.398;2023-05-02T05:13:04;18.27;;;13.43;;
54897;SDS011;40800;52.704;6.398;2023-05-02T05:15:30;15.65;;;12.63;;
54897;SDS011;40800;52.704;6.398;2023-05-02T05:17:55;17.13;;;13.00;;
54897;SDS011;40800;52.704;6.398;2023-05-02T05:20:21;18.88;;;12.95;;
54897;SDS011;40800;52.704;6.398;2023-05-02T05:22:46;15.75;;;12.50;;
54897;SDS011;40800;52.704;6.398;2023-05-02T05:25:12;14.48;;;12.10;;
54897;SDS011;40800;52.704;6.398;2023-05-02T05:27:37;12.30;;;10.95;;
54897;SDS011;40800;52.704;6.398;2023-05-02T05:30:03;13.50;;;11.32;;
54897;SDS011;40800;52.704;6.398;2023-05-02T05:32:31;14.68;;;10.82;;
54897;SDS011;40800;52.704;6.398;2023-05-02T05:34:57;14.50;;;11.30;;
54897;SDS011;40800;52.704;6.398;2023-05-02T05:37:23;12.75;;;10.27;;
54897;SDS011;40800;52.704;6.398;2023-05-02T05:39:48;11.73;;;10.05;;
54897;SDS011;40800;52.704;6.398;2023-05-02T05:42:14;13.52;;;10.10;;
54897;SDS011;40800;52.704;6.398;2023-05-02T05:44:39;13.05;;;9.80;;
54897;SDS011;40800;52.704;6.398;2023-05-02T05:47:05;12.20;;;9.65;;
54897;SDS011;40800;52.704;6.398;2023-05-02T05:49:30;10.93;;;9.00;;
54897;SDS011;40800;52.704;6.398;2023-05-02T05:51:56;11.38;;;9.05;;
54897;SDS011;40800;52.704;6.398;2023-05-02T05:54:22;14.25;;;8.63;;
54897;SDS011;40800;52.704;6.398;2023-05-02T05:56:48;11.88;;;8.63;;
54897;SDS011;40800;52.704;6.398;2023-05-02T05:59:14;12.30;;;8.15;;
54897;SDS011;40800;52.704;6.398;2023-05-02T06:01:40;10.35;;;7.90;;
54897;SDS011;40800;52.704;6.398;2023-05-02T06:04:05;14.70;;;8.50;;
54897;SDS011;40800;52.704;6.398;2023-05-02T06:06:31;9.38;;;7.47;;
54897;SDS011;40800;52.704;6.398;2023-05-02T06:08:57;15.45;;;8.07;;
54897;SDS011;40800;52.704;6.398;2023-05-02T06:11:23;18.85;;;7.60;;
54897;SDS011;40800;52.704;6.398;2023-05-02T06:13:50;11.43;;;7.35;;
54897;SDS011;40800;52.704;6.398;2023-05-02T06:16:16;12.55;;;6.88;;
54897;SDS011;40800;52.704;6.398;2023-05-02T06:18:45;10.45;;;6.85;;
54897;SDS011;40800;52.704;6.398;2023-05-02T06:21:10;8.50;;;7.03;;
54897;SDS011;40800;52.704;6.398;2023-05-02T06:23:36;9.20;;;7.15;;
54897;SDS011;40800;52.704;6.398;2023-05-02T06:26:02;9.13;;;7.10;;
54897;SDS011;40800;52.704;6.398;2023-05-02T06:28:29;10.02;;;6.90;;
54897;SDS011;40800;52.704;6.398;2023-05-02T06:30:58;8.82;;;7.10;;
54897;SDS011;40800;52.704;6.398;2023-05-02T06:33:26;10.45;;;7.18;;
54897;SDS011;40800;52.704;6.398;2023-05-02T06:35:52;11.55;;;7.20;;
54897;SDS011;40800;52.704;6.398;2023-05-02T06:38:17;10.15;;;7.25;;
54897;SDS011;40800;52.704;6.398;2023-05-02T06:40:43;11.75;;;7.65;;
54897;SDS011;40800;52.704;6.398;2023-05-02T06:43:09;11.68;;;8.20;;
54897;SDS011;40800;52.704;6.398;2023-05-02T06:45:35;11.53;;;8.07;;
54897;SDS011;40800;52.704;6.398;2023-05-02T06:48:01;8.32;;;4.25;;
54897;SDS011;40800;52.704;6.398;2023-05-02T06:50:27;7.18;;;3.60;;
54897;SDS011;40800;52.704;6.398;2023-05-02T06:52:53;9.52;;;3.50;;
54897;SDS011;40800;52.704;6.398;2023-05-02T06:55:19;11.10;;;3.28;;
54897;SDS011;40800;52.704;6.398;2023-05-02T06:57:45;8.23;;;3.40;;
54897;SDS011;40800;52.704;6.398;2023-05-02T07:00:11;8.38;;;3.22;;
54897;SDS011;40800;52.704;6.398;2023-05-02T07:02:37;9.77;;;3.17;;
54897;SDS011;40800;52.704;6.398;2023-05-02T07:05:03;9.52;;;3.17;;
54897;SDS011;40800;52.704;6.398;2023-05-02T07:07:28;6.97;;;3.30;;
54897;SDS011;40800;52.704;6.398;2023-05-02T07:09:54;9.70;;;3.17;;
54897;SDS011;40800;52.704;6.398;2023-05-02T07:12:20;9.93;;;3.10;;
54897;SDS011;40800;52.704;6.398;2023-05-02T07:14:45;8.40;;;3.38;;
54897;SDS011;40800;52.704;6.398;2023-05-02T07:17:11;8.85;;;3.30;;
54897;SDS011;40800;52.704;6.398;2023-05-02T07:19:36;8.93;;;3.03;;
54897;SDS011;40800;52.704;6.398;2023-05-02T07:22:02;7.50;;;3.10;;
54897;SDS011;40800;52.704;6.398;2023-05-02T07:24:28;11.77;;;3.75;;
54897;SDS011;40800;52.704;6.398;2023-05-02T07:26:53;12.57;;;3.50;;
54897;SDS011;40800;52.704;6.398;2023-05-02T07:29:19;8.25;;;3.10;;
54897;SDS011;40800;52.704;6.398;2023-05-02T07:31:45;9.02;;;3.40;;
54897;SDS011;40800;52.704;6.398;2023-05-02T07:34:10;9.07;;;3.17;;
54897;SDS011;40800;52.704;6.398;2023-05-02T07:36:36;9.20;;;3.40;;
54897;SDS011;40800;52.704;6.398;2023-05-02T07:39:03;8.57;;;3.63;;
54897;SDS011;40800;52.704;6.398;2023-05-02T07:41:28;8.27;;;3.10;;
54897;SDS011;40800;52.704;6.398;2023-05-02T07:43:54;11.90;;;3.70;;
54897;SDS011;40800;52.704;6.398;2023-05-02T07:46:21;10.48;;;3.40;;
54897;SDS011;40800;52.704;6.398;2023-05-02T07:48:47;10.05;;;3.90;;
54897;SDS011;40800;52.704;6.398;2023-05-02T07:51:13;9.82;;;3.42;;
54897;SDS011;40800;52.704;6.398;2023-05-02T07:53:38;8.85;;;3.80;;
54897;SDS011;40800;52.704;6.398;2023-05-02T07:56:04;7.65;;;3.20;;
54897;SDS011;40800;52.704;6.398;2023-05-02T07:58:31;10.07;;;3.70;;
54897;SDS011;40800;52.704;6.398;2023-05-02T08:00:56;10.95;;;3.55;;
54897;SDS011;40800;52.704;6.398;2023-05-02T08:03:22;10.80;;;3.50;;
54897;SDS011;40800;52.704;6.398;2023-05-02T08:05:48;10.23;;;3.58;;
54897;SDS011;40800;52.704;6.398;2023-05-02T08:08:13;10.52;;;3.35;;
54897;SDS011;40800;52.704;6.398;2023-05-02T08:10:39;8.25;;;3.72;;
54897;SDS011;40800;52.704;6.398;2023-05-02T08:13:04;9.27;;;3.60;;
54897;SDS011;40800;52.704;6.398;2023-05-02T08:15:30;9.35;;;3.40;;
54897;SDS011;40800;52.704;6.398;2023-05-02T08:17:55;11.20;;;3.70;;
54897;SDS011;40800;52.704;6.398;2023-05-02T08:20:21;9.02;;;3.17;;
54897;SDS011;40800;52.704;6.398;2023-05-02T08:22:47;8.05;;;3.25;;
54897;SDS011;40800;52.704;6.398;2023-05-02T08:25:12;11.50;;;3.45;;
54897;SDS011;40800;52.704;6.398;2023-05-02T08:27:38;12.60;;;4.13;;
54897;SDS011;40800;52.704;6.398;2023-05-02T08:30:04;9.18;;;3.45;;
54897;SDS011;40800;52.704;6.398;2023-05-02T08:32:31;10.27;;;3.67;;
54897;SDS011;40800;52.704;6.398;2023-05-02T08:34:56;10.90;;;3.85;;
54897;SDS011;40800;52.704;6.398;2023-05-02T08:37:22;10.80;;;3.55;;
54897;SDS011;40800;52.704;6.398;2023-05-02T08:39:48;10.75;;;3.40;;
54897;SDS011;40800;52.704;6.398;2023-05-02T08:42:13;7.47;;;3.40;;
54897;SDS011;40800;52.704;6.398;2023-05-02T08:44:39;7.35;;;3.47;;
54897;SDS011;40800;52.704;6.398;2023-05-02T08:47:05;8.75;;;3.60;;
54897;SDS011;40800;52.704;6.398;2023-05-02T08:49:33;9.27;;;3.78;;
54897;SDS011;40800;52.704;6.398;2023-05-02T08:54:26;10.82;;;3.90;;
54897;SDS011;40800;52.704;6.398;2023-05-02T08:56:53;11.02;;;3.58;;
54897;SDS011;40800;52.704;6.398;2023-05-02T08:59:18;9.98;;;3.55;;
54897;SDS011;40800;52.704;6.398;2023-05-02T09:01:44;11.38;;;3.60;;
54897;SDS011;40800;52.704;6.398;2023-05-02T09:04:18;13.32;;;3.83;;
54897;SDS011;40800;52.704;6.398;2023-05-02T09:06:47;10.68;;;3.80;;
54897;SDS011;40800;52.704;6.398;2023-05-02T09:09:12;14.05;;;4.07;;
54897;SDS011;40800;52.704;6.398;2023-05-02T09:11:38;9.50;;;3.50;;
54897;SDS011;40800;52.704;6.398;2023-05-02T09:14:12;10.35;;;4.07;;
54897;SDS011;40800;52.704;6.398;2023-05-02T09:16:39;11.45;;;3.65;;
54897;SDS011;40800;52.704;6.398;2023-05-02T09:19:05;7.72;;;3.28;;
54897;SDS011;40800;52.704;6.398;2023-05-02T09:21:34;8.25;;;3.20;;
54897;SDS011;40800;52.704;6.398;2023-05-02T09:24:14;10.38;;;3.28;;
54897;SDS011;40800;52.704;6.398;2023-05-02T09:26:42;5.22;;;3.00;;
54897;SDS011;40800;52.704;6.398;2023-05-02T09:29:08;10.00;;;3.15;;
54897;SDS011;40800;52.704;6.398;2023-05-02T09:31:34;7.03;;;3.25;;
54897;SDS011;40800;52.704;6.398;2023-05-02T09:36:44;10.82;;;3.25;;
54897;SDS011;40800;52.704;6.398;2023-05-02T09:39:12;8.67;;;3.50;;
54897;SDS011;40800;52.704;6.398;2023-05-02T09:41:40;10.65;;;3.67;;
54897;SDS011;40800;52.704;6.398;2023-05-02T09:44:10;8.10;;;3.33;;
54897;SDS011;40800;52.704;6.398;2023-05-02T09:46:40;8.50;;;3.50;;
54897;SDS011;40800;52.704;6.398;2023-05-02T09:49:13;8.23;;;3.27;;
54897;SDS011;40800;52.704;6.398;2023-05-02T09:51:42;8.32;;;3.20;;
54897;SDS011;40800;52.704;6.398;2023-05-02T09:54:08;6.72;;;2.85;;
54897;SDS011;40800;52.704;6.398;2023-05-02T09:56:50;4.85;;;2.75;;
54897;SDS011;40800;52.704;6.398;2023-05-02T09:59:20;6.50;;;2.70;;
54897;SDS011;40800;52.704;6.398;2023-05-02T10:01:53;8.63;;;3.07;;
54897;SDS011;40800;52.704;6.398;2023-05-02T10:04:23;6.68;;;3.00;;
54897;SDS011;40800;52.704;6.398;2023-05-02T10:06:50;5.88;;;2.83;;
54897;SDS011;40800;52.704;6.398;2023-05-02T10:09:16;7.57;;;2.80;;
54897;SDS011;40800;52.704;6.398;2023-05-02T10:11:45;7.65;;;3.28;;
54897;SDS011;40800;52.704;6.398;2023-05-02T10:14:11;9.30;;;3.40;;
54897;SDS011;40800;52.704;6.398;2023-05-02T10:17:00;9.35;;;2.80;;
54897;SDS011;40800;52.704;6.398;2023-05-02T10:22:28;5.70;;;3.00;;
54897;SDS011;40800;52.704;6.398;2023-05-02T10:24:55;8.65;;;3.10;;
54897;SDS011;40800;52.704;6.398;2023-05-02T10:27:23;5.97;;;3.10;;
54897;SDS011;40800;52.704;6.398;2023-05-02T10:29:49;7.20;;;3.03;;
54897;SDS011;40800;52.704;6.398;2023-05-02T10:32:17;7.68;;;3.40;;
54897;SDS011;40800;52.704;6.398;2023-05-02T10:34:43;7.00;;;2.83;;
54897;SDS011;40800;52.704;6.398;2023-05-02T10:37:10;7.18;;;2.90;;
54897;SDS011;40800;52.704;6.398;2023-05-02T10:39:36;9.88;;;3.17;;
54897;SDS011;40800;52.704;6.398;2023-05-02T10:42:02;7.28;;;2.85;;
54897;SDS011;40800;52.704;6.398;2023-05-02T10:44:36;8.98;;;3.08;;
54897;SDS011;40800;52.704;6.398;2023-05-02T10:47:17;7.88;;;2.95;;
54897;SDS011;40800;52.704;6.398;2023-05-02T10:49:48;8.32;;;3.20;;
54897;SDS011;40800;52.704;6.398;2023-05-02T10:52:54;19.00;;;3.10;;
54897;SDS011;40800;52.704;6.398;2023-05-02T10:58:33;7.43;;;2.33;;
54897;SDS011;40800;52.704;6.398;2023-05-02T11:00:33;6.97;;;2.85;;
54897;SDS011;40800;52.704;6.398;2023-05-02T11:02:59;6.13;;;2.58;;
54897;SDS011;40800;52.704;6.398;2023-05-02T11:05:25;8.77;;;3.05;;
54897;SDS011;40800;52.704;6.398;2023-05-02T11:10:52;7.32;;;2.53;;
54897;SDS011;40800;52.704;6.398;2023-05-02T11:13:46;6.45;;;2.70;;
54897;SDS011;40800;52.704;6.398;2023-05-02T11:16:21;5.20;;;2.13;;
54897;SDS011;40800;52.704;6.398;2023-05-02T11:18:59;7.75;;;2.42;;
54897;SDS011;40800;52.704;6.398;2023-05-02T11:21:26;4.85;;;2.13;;
54897;SDS011;40800;52.704;6.398;2023-05-02T11:24:19;6.85;;;2.20;;
54897;SDS011;40800;52.704;6.398;2023-05-02T11:27:35;7.15;;;2.47;;
54897;SDS011;40800;52.704;6.398;2023-05-02T11:30:03;5.05;;;2.30;;
54897;SDS011;40800;52.704;6.398;2023-05-02T11:35:13;5.72;;;2.30;;
54897;SDS011;40800;52.704;6.398;2023-05-02T11:37:41;5.80;;;2.50;;
54897;SDS011;40800;52.704;6.398;2023-05-02T11:40:10;5.00;;;2.67;;
54897;SDS011;40800;52.704;6.398;2023-05-02T11:42:40;5.38;;;2.65;;
54897;SDS011;40800;52.704;6.398;2023-05-02T11:45:06;4.90;;;1.98;;
54897;SDS011;40800;52.704;6.398;2023-05-02T11:47:31;4.93;;;2.30;;
54897;SDS011;40800;52.704;6.398;2023-05-02T11:49:57;5.25;;;2.20;;
54897;SDS011;40800;52.704;6.398;2023-05-02T11:52:26;7.70;;;2.30;;
54897;SDS011;40800;52.704;6.398;2023-05-02T11:54:54;3.67;;;1.85;;
54897;SDS011;40800;52.704;6.398;2023-05-02T11:57:21;3.95;;;1.92;;
54897;SDS011;40800;52.704;6.398;2023-05-02T11:59:53;4.63;;;1.95;;
54897;SDS011;40800;52.704;6.398;2023-05-02T12:02:33;4.07;;;1.92;;
54897;SDS011;40800;52.704;6.398;2023-05-02T12:05:10;5.80;;;2.10;;
54897;SDS011;40800;52.704;6.398;2023-05-02T12:07:45;4.38;;;2.00;;
54897;SDS011;40800;52.704;6.398;2023-05-02T12:10:14;3.92;;;2.03;;
54897;SDS011;40800;52.704;6.398;2023-05-02T12:12:41;4.47;;;2.15;;
54897;SDS011;40800;52.704;6.398;2023-05-02T12:15:09;3.58;;;1.88;;
54897;SDS011;40800;52.704;6.398;2023-05-02T12:17:42;4.13;;;1.70;;
54897;SDS011;40800;52.704;6.398;2023-05-02T12:20:11;3.92;;;1.80;;
54897;SDS011;40800;52.704;6.398;2023-05-02T12:22:37;4.72;;;1.65;;
54897;SDS011;40800;52.704;6.398;2023-05-02T12:25:03;6.30;;;1.90;;
54897;SDS011;40800;52.704;6.398;2023-05-02T12:27:30;4.47;;;1.88;;
54897;SDS011;40800;52.704;6.398;2023-05-02T12:29:59;4.05;;;1.75;;
54897;SDS011;40800;52.704;6.398;2023-05-02T12:32:26;4.45;;;2.13;;
54897;SDS011;40800;52.704;6.398;2023-05-02T12:34:53;3.33;;;1.67;;
54897;SDS011;40800;52.704;6.398;2023-05-02T12:37:23;5.22;;;2.08;;
54897;SDS011;40800;52.704;6.398;2023-05-02T12:39:50;3.35;;;2.00;;
54897;SDS011;40800;52.704;6.398;2023-05-02T12:42:17;5.30;;;2.05;;
54897;SDS011;40800;52.704;6.398;2023-05-02T12:44:45;4.28;;;1.73;;
54897;SDS011;40800;52.704;6.398;2023-05-02T12:47:12;4.35;;;1.80;;
54897;SDS011;40800;52.704;6.398;2023-05-02T12:52:30;3.10;;;2.03;;
54897;SDS011;40800;52.704;6.398;2023-05-02T12:55:24;5.72;;;2.40;;
54897;SDS011;40800;52.704;6.398;2023-05-02T12:58:04;4.65;;;2.42;;
54897;SDS011;40800;52.704;6.398;2023-05-02T13:00:35;6.68;;;2.55;;
54897;SDS011;40800;52.704;6.398;2023-05-02T13:03:03;6.60;;;2.42;;
54897;SDS011;40800;52.704;6.398;2023-05-02T13:05:29;3.93;;;2.03;;
54897;SDS011;40800;52.704;6.398;2023-05-02T13:07:54;5.45;;;2.28;;
54897;SDS011;40800;52.704;6.398;2023-05-02T13:10:21;5.63;;;2.40;;
54897;SDS011;40800;52.704;6.398;2023-05-02T13:12:48;4.70;;;2.13;;
54897;SDS011;40800;52.704;6.398;2023-05-02T13:15:14;5.53;;;2.53;;
54897;SDS011;40800;52.704;6.398;2023-05-02T13:17:40;6.80;;;2.72;;
54897;SDS011;40800;52.704;6.398;2023-05-02T13:20:06;6.35;;;2.45;;
54897;SDS011;40800;52.704;6.398;2023-05-02T13:22:33;8.25;;;2.60;;
54897;SDS011;40800;52.704;6.398;2023-05-02T13:24:59;6.80;;;2.35;;
54897;SDS011;40800;52.704;6.398;2023-05-02T13:27:24;6.95;;;2.40;;
54897;SDS011;40800;52.704;6.398;2023-05-02T13:29:50;10.07;;;2.95;;
54897;SDS011;40800;52.704;6.398;2023-05-02T13:32:16;41.90;;;4.28;;
54897;SDS011;40800;52.704;6.398;2023-05-02T13:34:42;16.20;;;6.25;;
54897;SDS011;40800;52.704;6.398;2023-05-02T13:37:08;6.38;;;2.35;;
54897;SDS011;40800;52.704;6.398;2023-05-02T13:39:34;4.85;;;2.40;;
54897;SDS011;40800;52.704;6.398;2023-05-02T13:41:59;9.88;;;3.15;;
54897;SDS011;40800;52.704;6.398;2023-05-02T13:44:29;5.25;;;2.50;;
54897;SDS011;40800;52.704;6.398;2023-05-02T13:46:55;4.50;;;2.35;;
54897;SDS011;40800;52.704;6.398;2023-05-02T13:49:21;3.72;;;1.90;;
54897;SDS011;40800;52.704;6.398;2023-05-02T13:51:46;6.57;;;2.20;;
54897;SDS011;40800;52.704;6.398;2023-05-02T13:54:12;4.88;;;2.20;;
54897;SDS011;40800;52.704;6.398;2023-05-02T13:56:38;6.13;;;2.20;;
54897;SDS011;40800;52.704;6.398;2023-05-02T13:59:04;4.75;;;2.22;;
54897;SDS011;40800;52.704;6.398;2023-05-02T14:01:30;4.73;;;2.27;;
54897;SDS011;40800;52.704;6.398;2023-05-02T14:03:56;6.65;;;2.30;;
54897;SDS011;40800;52.704;6.398;2023-05-02T14:06:22;5.45;;;2.00;;
54897;SDS011;40800;52.704;6.398;2023-05-02T14:08:47;6.78;;;2.20;;
54897;SDS011;40800;52.704;6.398;2023-05-02T14:11:13;5.15;;;2.33;;
54897;SDS011;40800;52.704;6.398;2023-05-02T14:13:38;5.47;;;2.50;;
54897;SDS011;40800;52.704;6.398;2023-05-02T14:16:04;3.92;;;1.98;;
54897;SDS011;40800;52.704;6.398;2023-05-02T14:18:30;4.80;;;2.10;;
54897;SDS011;40800;52.704;6.398;2023-05-02T14:20:55;7.95;;;2.42;;
54897;SDS011;40800;52.704;6.398;2023-05-02T14:23:24;4.47;;;2.10;;
54897;SDS011;40800;52.704;6.398;2023-05-02T14:25:50;5.67;;;2.37;;
54897;SDS011;40800;52.704;6.398;2023-05-02T14:28:15;5.15;;;2.20;;
54897;SDS011;40800;52.704;6.398;2023-05-02T14:30:41;6.22;;;2.60;;
54897;SDS011;40800;52.704;6.398;2023-05-02T14:33:06;4.03;;;2.15;;
54897;SDS011;40800;52.704;6.398;2023-05-02T14:35:32;6.95;;;2.53;;
54897;SDS011;40800;52.704;6.398;2023-05-02T14:37:58;4.85;;;2.33;;
54897;SDS011;40800;52.704;6.398;2023-05-02T14:40:23;4.82;;;2.10;;
54897;SDS011;40800;52.704;6.398;2023-05-02T14:42:49;5.25;;;2.38;;
54897;SDS011;40800;52.704;6.398;2023-05-02T14:45:15;5.18;;;2.58;;
54897;SDS011;40800;52.704;6.398;2023-05-02T14:47:40;5.57;;;2.40;;
54897;SDS011;40800;52.704;6.398;2023-05-02T14:50:06;4.65;;;2.35;;
54897;SDS011;40800;52.704;6.398;2023-05-02T14:52:32;5.82;;;2.38;;
54897;SDS011;40800;52.704;6.398;2023-05-02T14:54:58;8.25;;;2.55;;
54897;SDS011;40800;52.704;6.398;2023-05-02T14:57:24;3.20;;;1.90;;
54897;SDS011;40800;52.704;6.398;2023-05-02T14:59:50;3.05;;;1.98;;
54897;SDS011;40800;52.704;6.398;2023-05-02T15:02:15;6.85;;;2.13;;
54897;SDS011;40800;52.704;6.398;2023-05-02T15:04:41;4.68;;;1.98;;
54897;SDS011;40800;52.704;6.398;2023-05-02T15:07:06;4.30;;;1.90;;
54897;SDS011;40800;52.704;6.398;2023-05-02T15:09:32;4.85;;;2.05;;
54897;SDS011;40800;52.704;6.398;2023-05-02T15:11:58;5.03;;;2.20;;
54897;SDS011;40800;52.704;6.398;2023-05-02T15:14:23;5.10;;;1.92;;
54897;SDS011;40800;52.704;6.398;2023-05-02T15:16:49;2.83;;;1.83;;
54897;SDS011;40800;52.704;6.398;2023-05-02T15:19:15;5.88;;;2.35;;
54897;SDS011;40800;52.704;6.398;2023-05-02T15:21:41;4.45;;;2.00;;
54897;SDS011;40800;52.704;6.398;2023-05-02T15:24:06;10.30;;;2.90;;
54897;SDS011;40800;52.704;6.398;2023-05-02T15:26:32;4.80;;;2.20;;
54897;SDS011;40800;52.704;6.398;2023-05-02T15:28:57;4.60;;;1.92;;
54897;SDS011;40800;52.704;6.398;2023-05-02T15:31:23;6.18;;;1.90;;
54897;SDS011;40800;52.704;6.398;2023-05-02T15:33:49;6.65;;;2.13;;